Knoxville, IA

8:21 AM CDT on August 25, 2016 (GMT -0500)
Knoxville Municipal | | Change Station

Elev 928 ft 41.30 °N, 93.11 °W | Updated 6 minutes ago

Overcast
Overcast
68 °F
Feels Like 68 °F
N
6
Wind Variable Wind from North

Today
High -- | Low -- °F
--% Chance of Precip.
Yesterday
High -- | Low -- °F
Precip. -- in
Pressure 30.05 in
Visibility 10.0 miles
Clouds Few 4400 ft
Mostly Cloudy 5000 ft
Overcast 9000 ft
Dew Point 63 °F
Humidity 83%
Rainfall 0.00 in
Snow Depth Not available.
6:32 AM 7:55 PM
Last Quarter, 45% visible
METAR KOXV 251315Z AUTO 01005KT 10SM FEW044 BKN050 OVC090 20/17 A3005 RMK AO2
Pressure 30.05 in
Visibility 10.0 miles
Clouds Few 4400 ft
Mostly Cloudy 5000 ft
Overcast 9000 ft
Dew Point 63 °F
Humidity 83%
Rainfall 0.00 in
Snow Depth Not available.
6:32 AM 7:55 PM
Last Quarter, 45% visible
METAR KOXV 251315Z AUTO 01005KT 10SM FEW044 BKN050 OVC090 20/17 A3005 RMK AO2

10-Day Weather Forecast

Almanac

Astronomy

Aug. 25, 2016 Rise Set
Actual Time
Civil Twilight
Nautical Twilight
Astronomical Twilight
Moon
Length of Visible Light
Length of Day
Tomorrow will be .
, % of the Moon is Illuminated

Today's Extremes

State Highs State Lows

Community

WunderPhotos

Upload Photos

1,934,845 photos uploaded!

WunderBlog® & News

Nearby

Air Quality

  Air Quality AQ Index Pollutant
Not available.

Snow Depth

Station Depth Elevation

Earthquake Activity

City Distance Mag. Time & Date
Minimum magnitude displayed is 2.5.

Coastal Water Temperatures

Place Temperature

Stations

Nearby Weather Stations

Station Location Temp. Windchill Dew Point Humidity Wind Precip. Elev Updated Type
                   

Watches & Warnings

There are currently no watches in effect.